createdAt,value
2022-11-17T00:00:46.652Z,16.52
2022-11-17T00:03:15.952Z,17.42
2022-11-17T00:05:47.818Z,16.83
2022-11-17T00:08:17.851Z,23.48
2022-11-17T00:10:45.800Z,20.38
2022-11-17T00:13:34.094Z,17.42
2022-11-17T00:16:03.882Z,20.73
2022-11-17T00:18:50.187Z,15.38
2022-11-17T00:21:24.100Z,19.60
2022-11-17T00:23:56.253Z,21.95
2022-11-17T00:26:26.499Z,22.88
2022-11-17T00:28:55.717Z,19.23
2022-11-17T00:31:57.330Z,21.95
2022-11-17T00:34:25.811Z,22.48
2022-11-17T00:36:55.697Z,20.15
2022-11-17T00:39:26.544Z,25.55
2022-11-17T00:41:54.560Z,24.45
2022-11-17T00:44:25.338Z,22.83
2022-11-17T00:46:55.091Z,23.08
2022-11-17T00:49:26.939Z,22.70
2022-11-17T00:51:56.137Z,20.70
2022-11-17T00:54:26.256Z,22.00
2022-11-17T00:56:54.253Z,20.08
2022-11-17T00:59:22.251Z,20.92
2022-11-17T01:01:55.159Z,20.42
2022-11-17T01:04:23.972Z,22.45
2022-11-17T01:06:52.391Z,19.38
2022-11-17T01:09:23.728Z,22.70
2022-11-17T01:11:55.065Z,22.48
2022-11-17T01:14:25.205Z,23.13
2022-11-17T01:16:54.779Z,25.20
2022-11-17T01:19:24.961Z,16.88
2022-11-17T01:21:53.953Z,21.95
2022-11-17T01:24:22.458Z,23.08
2022-11-17T01:26:55.332Z,23.83
2022-11-17T01:29:23.758Z,23.83
2022-11-17T01:31:54.151Z,22.58
2022-11-17T01:34:23.233Z,25.02
2022-11-17T01:37:09.008Z,19.48
2022-11-17T01:39:37.620Z,22.08
2022-11-17T01:42:14.765Z,23.58
2022-11-17T01:45:03.046Z,18.45
2022-11-17T01:47:36.165Z,19.95
2022-11-17T01:50:09.455Z,17.02
2022-11-17T01:52:39.188Z,22.30
2022-11-17T01:55:09.199Z,21.67
2022-11-17T01:57:40.918Z,21.38
2022-11-17T02:00:11.346Z,21.67
2022-11-17T02:02:41.260Z,20.23
2022-11-17T02:05:20.039Z,19.63
2022-11-17T02:07:49.282Z,20.15
2022-11-17T02:10:19.034Z,21.40
2022-11-17T02:12:49.548Z,21.67
2022-11-17T02:15:18.692Z,20.65
2022-11-17T02:17:46.936Z,19.13
2022-11-17T02:20:16.780Z,22.50
2022-11-17T02:23:13.706Z,18.85
2022-11-17T02:26:08.456Z,19.15
2022-11-17T02:28:43.325Z,22.35
2022-11-17T02:31:19.374Z,19.67
2022-11-17T02:33:56.128Z,21.10
2022-11-17T02:36:37.352Z,20.63
2022-11-17T02:39:11.804Z,19.98
2022-11-17T02:41:47.909Z,18.60
2022-11-17T02:44:23.107Z,21.67
2022-11-17T02:46:56.156Z,22.40
2022-11-17T02:49:28.343Z,19.48
2022-11-17T02:52:01.621Z,18.35
2022-11-17T02:54:34.695Z,21.63
2022-11-17T02:57:03.025Z,23.23
2022-11-17T02:59:37.628Z,21.10
2022-11-17T03:02:23.493Z,17.73
2022-11-17T03:05:06.258Z,19.50
2022-11-17T03:07:46.977Z,18.48
2022-11-17T03:10:18.931Z,18.17
2022-11-17T03:12:50.242Z,20.48
2022-11-17T03:15:33.637Z,18.43
2022-11-17T03:18:10.080Z,17.98
2022-11-17T03:20:42.646Z,16.63
2022-11-17T03:23:15.742Z,18.50
2022-11-17T03:25:48.526Z,20.02
2022-11-17T03:28:17.524Z,16.73
2022-11-17T03:30:51.692Z,20.25
2022-11-17T03:33:23.423Z,19.70
2022-11-17T03:35:56.761Z,19.63
2022-11-17T03:38:29.042Z,17.17
2022-11-17T03:43:32.041Z,17.95
2022-11-17T03:46:07.724Z,17.27
2022-11-17T03:48:37.989Z,19.90
2022-11-17T03:51:09.555Z,19.98
2022-11-17T03:53:38.971Z,19.25
2022-11-17T03:56:16.858Z,24.77
2022-11-17T03:58:50.992Z,20.02
2022-11-17T04:01:21.108Z,20.05
2022-11-17T04:03:49.795Z,18.95
2022-11-17T04:06:21.398Z,22.83
2022-11-17T04:08:49.919Z,25.92
2022-11-17T04:11:36.835Z,19.25
2022-11-17T04:14:24.252Z,20.92
2022-11-17T04:16:56.616Z,21.20
2022-11-17T04:19:24.883Z,18.00
2022-11-17T04:21:53.113Z,22.20
2022-11-17T04:24:21.649Z,22.00
2022-11-17T04:27:09.901Z,18.17
2022-11-17T04:29:39.473Z,20.35
2022-11-17T04:32:08.928Z,22.88
2022-11-17T04:34:46.142Z,24.30
2022-11-17T04:37:18.179Z,23.40
2022-11-17T04:39:55.843Z,20.23
2022-11-17T04:42:24.528Z,23.70
2022-11-17T04:44:55.714Z,23.10
2022-11-17T04:47:25.351Z,23.75
2022-11-17T04:49:54.615Z,23.23
2022-11-17T04:52:26.908Z,24.08
2022-11-17T04:54:57.670Z,23.17
2022-11-17T04:57:26.237Z,20.63
2022-11-17T04:59:54.153Z,22.08
2022-11-17T05:02:22.498Z,21.33
2022-11-17T05:04:59.551Z,19.45
2022-11-17T05:07:28.424Z,21.30
2022-11-17T05:09:57.719Z,21.60
2022-11-17T05:12:43.799Z,25.08
2022-11-17T05:15:32.677Z,20.95
2022-11-17T05:18:00.018Z,22.65
2022-11-17T05:20:29.505Z,25.10
2022-11-17T05:23:15.808Z,26.23
2022-11-17T05:25:49.365Z,22.33
2022-11-17T05:28:17.347Z,22.42
2022-11-17T05:30:45.779Z,22.55
2022-11-17T05:33:15.133Z,25.67
2022-11-17T05:35:44.839Z,24.02
2022-11-17T05:38:14.707Z,23.98
2022-11-17T05:40:43.157Z,18.10
2022-11-17T05:43:11.330Z,26.27
2022-11-17T05:45:40.390Z,22.40
2022-11-17T05:48:08.509Z,25.48
2022-11-17T05:50:39.390Z,22.00
2022-11-17T05:53:12.779Z,23.00
2022-11-17T05:55:41.111Z,24.23
2022-11-17T05:58:12.389Z,23.35
2022-11-17T06:03:16.628Z,21.13
2022-11-17T06:05:45.841Z,23.73
2022-11-17T06:08:19.593Z,23.23
2022-11-17T06:10:48.443Z,29.13
2022-11-17T06:13:29.551Z,26.83
2022-11-17T06:16:01.044Z,23.08
2022-11-17T06:18:31.569Z,24.95
2022-11-17T06:20:59.581Z,22.80
2022-11-17T06:23:31.977Z,43.47
2022-11-17T06:26:01.439Z,52.13
2022-11-17T06:28:29.995Z,22.38
2022-11-17T06:30:58.897Z,28.80
2022-11-17T06:33:29.300Z,25.50
2022-11-17T06:36:00.157Z,23.63
2022-11-17T06:38:29.767Z,27.65
2022-11-17T06:40:57.949Z,24.20
2022-11-17T06:43:28.462Z,20.98
2022-11-17T06:45:57.595Z,23.23
2022-11-17T06:48:27.196Z,23.35
2022-11-17T06:50:55.956Z,24.40
2022-11-17T06:53:26.855Z,20.95
2022-11-17T06:56:02.624Z,22.63
2022-11-17T06:58:31.341Z,20.70
2022-11-17T07:01:03.734Z,17.95
2022-11-17T07:03:32.500Z,18.33
2022-11-17T07:06:02.964Z,19.20
2022-11-17T07:08:31.548Z,19.25
2022-11-17T07:11:09.429Z,18.08
2022-11-17T07:13:38.288Z,20.75
2022-11-17T07:16:09.386Z,18.42
2022-11-17T07:18:39.136Z,16.85
2022-11-17T07:21:10.243Z,18.52
2022-11-17T07:23:40.797Z,16.05
2022-11-17T07:26:10.906Z,21.58
2022-11-17T07:28:40.222Z,17.20
2022-11-17T07:31:11.243Z,17.63
2022-11-17T07:33:39.504Z,19.52
2022-11-17T07:36:13.141Z,18.80
2022-11-17T07:38:42.694Z,15.98
2022-11-17T07:41:14.408Z,18.70
2022-11-17T07:43:43.486Z,14.48
2022-11-17T07:46:15.978Z,16.40
2022-11-17T07:48:44.751Z,16.13
2022-11-17T07:51:14.035Z,17.38
2022-11-17T07:53:42.362Z,17.33
2022-11-17T07:56:13.427Z,18.25
2022-11-17T07:58:43.694Z,17.27
2022-11-17T08:01:17.814Z,17.30
2022-11-17T08:03:47.521Z,18.48
2022-11-17T08:06:16.947Z,16.38
2022-11-17T08:08:45.008Z,20.73
2022-11-17T08:11:15.306Z,21.80
2022-11-17T08:13:44.170Z,18.05
2022-11-17T08:16:13.026Z,19.85
2022-11-17T08:18:41.994Z,13.93
2022-11-17T08:21:19.179Z,17.00
2022-11-17T08:23:51.040Z,16.75
2022-11-17T08:26:25.423Z,15.80
2022-11-17T08:28:58.112Z,16.55
2022-11-17T08:31:26.868Z,16.15
2022-11-17T08:33:55.608Z,19.33
2022-11-17T08:36:24.267Z,20.73
2022-11-17T08:38:52.378Z,18.02
2022-11-17T08:41:22.319Z,16.00
2022-11-17T08:43:55.748Z,15.55
2022-11-17T08:46:25.819Z,20.10
2022-11-17T08:48:57.226Z,18.80
2022-11-17T08:51:27.213Z,15.65
2022-11-17T08:53:55.643Z,20.00
2022-11-17T08:56:25.776Z,23.17
2022-11-17T08:58:53.766Z,21.67
2022-11-17T09:01:22.298Z,16.23
2022-11-17T09:03:51.015Z,17.42
2022-11-17T09:06:20.120Z,20.17
2022-11-17T09:08:48.899Z,22.02
2022-11-17T09:11:17.603Z,22.77
2022-11-17T09:13:47.679Z,19.25
2022-11-17T09:16:16.939Z,18.10
2022-11-17T09:18:45.988Z,17.55
2022-11-17T09:21:16.566Z,20.65
2022-11-17T09:23:47.398Z,20.50
2022-11-17T09:26:18.012Z,24.52
2022-11-17T09:28:49.317Z,18.20
2022-11-17T09:31:19.010Z,20.10
2022-11-17T09:33:47.483Z,21.35
2022-11-17T09:36:17.228Z,20.13
2022-11-17T09:38:48.721Z,19.85
2022-11-17T09:41:26.617Z,22.73
2022-11-17T09:44:07.551Z,20.00
2022-11-17T09:46:49.477Z,20.90
2022-11-17T09:49:27.131Z,21.77
2022-11-17T09:52:00.585Z,15.68
2022-11-17T09:54:35.875Z,22.35
2022-11-17T09:57:04.994Z,22.40
2022-11-17T09:59:34.842Z,23.60
2022-11-17T10:02:04.305Z,19.08
2022-11-17T10:04:32.334Z,19.55
2022-11-17T10:07:00.472Z,16.90
2022-11-17T10:09:36.189Z,25.55
2022-11-17T10:12:23.892Z,21.55
2022-11-17T10:14:55.465Z,22.40
2022-11-17T10:17:25.930Z,22.80
2022-11-17T10:19:56.074Z,20.02
2022-11-17T10:22:38.318Z,20.42
2022-11-17T10:25:27.000Z,18.58
2022-11-17T10:27:56.774Z,25.42
2022-11-17T10:30:26.430Z,23.05
2022-11-17T10:32:58.020Z,27.77
2022-11-17T10:35:30.474Z,24.08
2022-11-17T10:38:02.393Z,24.30
2022-11-17T10:40:32.325Z,24.00
2022-11-17T10:43:17.850Z,24.70
2022-11-17T10:45:56.557Z,27.25
2022-11-17T10:48:28.358Z,27.63
2022-11-17T10:50:58.128Z,26.67
2022-11-17T10:53:29.869Z,21.48
2022-11-17T10:56:07.533Z,24.40
2022-11-17T10:59:00.998Z,27.10
2022-11-17T11:01:33.988Z,21.90
2022-11-17T11:04:07.510Z,25.00
2022-11-17T11:06:37.558Z,25.30
2022-11-17T11:09:16.220Z,29.55
2022-11-17T11:11:51.661Z,25.83
2022-11-17T11:14:24.962Z,25.80
2022-11-17T11:16:57.452Z,25.20
2022-11-17T11:19:25.542Z,24.90
2022-11-17T11:22:28.704Z,28.73
2022-11-17T11:25:07.160Z,23.17
2022-11-17T11:28:05.489Z,27.85
2022-11-17T11:30:40.952Z,22.27
2022-11-17T11:33:25.550Z,26.00
2022-11-17T11:36:03.504Z,21.27
2022-11-17T11:38:58.347Z,28.55
2022-11-17T11:41:41.464Z,24.50
2022-11-17T11:46:51.357Z,24.30
2022-11-17T11:49:31.123Z,25.35
2022-11-17T11:51:59.340Z,20.80
2022-11-17T11:54:37.165Z,23.27
2022-11-17T11:57:13.140Z,20.55
2022-11-17T11:59:48.299Z,23.90
2022-11-17T12:02:26.795Z,26.70
2022-11-17T12:05:01.705Z,24.55
2022-11-17T12:07:39.905Z,23.38
2022-11-17T12:10:14.001Z,22.35
2022-11-17T12:12:49.235Z,24.35
2022-11-17T12:15:51.214Z,25.77
2022-11-17T12:18:37.919Z,24.17
2022-11-17T12:21:14.694Z,19.08
2022-11-17T12:24:07.444Z,18.75
2022-11-17T12:26:36.920Z,24.60
2022-11-17T12:29:26.162Z,17.83
2022-11-17T12:31:56.099Z,22.02
2022-11-17T12:34:35.334Z,24.45
2022-11-17T12:37:32.702Z,18.98
2022-11-17T12:40:04.873Z,18.90
2022-11-17T12:42:34.604Z,25.42
2022-11-17T12:45:07.887Z,24.48
2022-11-17T12:47:40.683Z,18.73
2022-11-17T12:50:37.651Z,17.30
2022-11-17T12:53:45.093Z,21.55
2022-11-17T12:56:41.536Z,18.73
2022-11-17T12:59:39.192Z,22.60
2022-11-17T13:02:21.625Z,23.05
2022-11-17T13:07:21.417Z,19.88
2022-11-17T13:09:54.317Z,22.10
2022-11-17T13:12:25.143Z,19.38
2022-11-17T13:14:59.189Z,21.77
2022-11-17T13:17:34.396Z,20.80
2022-11-17T13:20:04.357Z,18.92
2022-11-17T13:22:42.317Z,22.05
2022-11-17T13:25:22.393Z,19.50
2022-11-17T13:27:57.186Z,19.45
2022-11-17T13:30:32.699Z,16.85
2022-11-17T13:33:02.689Z,19.05
2022-11-17T13:35:36.522Z,18.48
2022-11-17T13:38:21.303Z,20.27
2022-11-17T13:40:51.632Z,18.50
2022-11-17T13:43:23.744Z,15.25
2022-11-17T13:46:04.040Z,17.10
2022-11-17T13:48:33.145Z,18.20
2022-11-17T13:51:25.641Z,15.88
2022-11-17T13:53:59.619Z,17.45
2022-11-17T13:56:34.934Z,15.10
2022-11-17T13:59:13.163Z,16.25
2022-11-17T14:01:44.291Z,14.77
2022-11-17T14:04:19.766Z,17.83
2022-11-17T14:06:57.300Z,13.50
2022-11-17T14:09:27.616Z,17.42
2022-11-17T14:11:57.668Z,17.70
2022-11-17T14:14:33.211Z,15.95
2022-11-17T14:17:13.763Z,15.07
2022-11-17T14:19:44.794Z,18.40
2022-11-17T14:22:31.382Z,18.48
2022-11-17T14:25:02.431Z,21.20
2022-11-17T14:27:39.024Z,16.77
2022-11-17T14:30:16.099Z,19.52
2022-11-17T14:32:48.069Z,17.80
2022-11-17T14:35:20.135Z,20.35
2022-11-17T14:37:50.974Z,19.98
2022-11-17T14:40:19.107Z,25.13
2022-11-17T14:42:48.544Z,22.17
2022-11-17T14:45:22.416Z,23.25
2022-11-17T14:47:54.791Z,20.90
2022-11-17T14:50:26.060Z,23.55
2022-11-17T14:52:54.602Z,26.90
2022-11-17T14:55:24.989Z,23.25
2022-11-17T14:57:54.059Z,22.05
2022-11-17T15:00:24.773Z,22.83
2022-11-17T15:02:53.461Z,27.17
2022-11-17T15:05:21.746Z,24.80
2022-11-17T15:07:52.754Z,26.85
2022-11-17T15:10:22.166Z,25.42
2022-11-17T15:12:52.707Z,26.20
2022-11-17T15:15:21.152Z,21.70
2022-11-17T15:17:52.238Z,19.50
2022-11-17T15:20:21.947Z,23.55
2022-11-17T15:22:51.338Z,25.63
2022-11-17T15:25:23.059Z,23.95
2022-11-17T15:27:53.739Z,23.75
2022-11-17T15:30:23.031Z,25.75
2022-11-17T15:32:55.700Z,24.10
2022-11-17T15:35:24.695Z,25.55
2022-11-17T15:37:55.665Z,26.00
2022-11-17T15:40:24.623Z,24.55
2022-11-17T15:42:59.133Z,27.35
2022-11-17T15:45:29.357Z,26.70
2022-11-17T15:47:59.602Z,27.55
2022-11-17T15:50:28.325Z,27.52
2022-11-17T15:53:04.190Z,30.23
2022-11-17T15:55:35.733Z,26.40
2022-11-17T15:58:07.244Z,27.10
2022-11-17T16:00:36.377Z,26.65
2022-11-17T16:03:07.217Z,27.13
2022-11-17T16:05:35.401Z,31.05
2022-11-17T16:08:05.350Z,29.77
2022-11-17T16:10:34.851Z,26.83
2022-11-17T16:13:02.907Z,29.83
2022-11-17T16:15:30.965Z,26.05
2022-11-17T16:17:58.906Z,29.40
2022-11-17T16:20:28.456Z,28.55
2022-11-17T16:22:59.340Z,36.58
2022-11-17T16:25:27.340Z,28.42
2022-11-17T16:27:55.566Z,31.63
2022-11-17T16:30:31.371Z,33.45
2022-11-17T16:33:02.882Z,32.95
2022-11-17T16:35:36.155Z,35.42
2022-11-17T16:38:06.748Z,33.38
2022-11-17T16:40:46.149Z,29.30
2022-11-17T16:43:14.937Z,37.95
2022-11-17T16:45:45.768Z,35.30
2022-11-17T16:48:14.165Z,35.67
2022-11-17T16:50:46.793Z,39.63
2022-11-17T16:53:16.362Z,36.90
2022-11-17T16:55:46.911Z,34.58
2022-11-17T16:58:17.791Z,36.63
2022-11-17T17:00:46.963Z,37.00
2022-11-17T17:03:16.122Z,29.67
2022-11-17T17:05:47.683Z,37.28
2022-11-17T17:08:16.436Z,30.98
2022-11-17T17:10:48.099Z,33.60
2022-11-17T17:13:17.698Z,36.10
2022-11-17T17:15:45.976Z,32.05
2022-11-17T17:18:16.133Z,37.10
2022-11-17T17:20:51.859Z,36.70
2022-11-17T17:23:20.467Z,31.45
2022-11-17T17:25:49.781Z,35.85
2022-11-17T17:28:19.838Z,34.22
2022-11-17T17:30:54.494Z,36.70
2022-11-17T17:33:23.436Z,37.13
2022-11-17T17:35:52.699Z,35.47
2022-11-17T17:38:21.027Z,32.95
2022-11-17T17:40:49.439Z,35.88
2022-11-17T17:43:20.229Z,35.72
2022-11-17T17:45:48.194Z,33.75
2022-11-17T17:48:16.582Z,32.22
2022-11-17T17:50:48.638Z,32.30
2022-11-17T17:55:46.814Z,33.42
2022-11-17T17:58:15.894Z,35.53
2022-11-17T18:00:44.627Z,37.30
2022-11-17T18:03:13.031Z,28.02
2022-11-17T18:05:42.638Z,34.08
2022-11-17T18:08:10.949Z,34.85
2022-11-17T18:10:40.976Z,33.90
2022-11-17T18:13:13.488Z,33.83
2022-11-17T18:15:42.444Z,39.65
2022-11-17T18:18:12.636Z,35.75
2022-11-17T18:20:43.746Z,32.25
2022-11-17T18:23:11.839Z,36.55
2022-11-17T18:25:42.098Z,35.58
2022-11-17T18:28:12.777Z,38.13
2022-11-17T18:30:41.997Z,31.20
2022-11-17T18:33:10.276Z,30.88
2022-11-17T18:35:38.596Z,36.90
2022-11-17T18:38:07.286Z,39.85
2022-11-17T18:40:37.155Z,41.97
2022-11-17T18:43:06.490Z,43.00
2022-11-17T18:45:38.988Z,30.23
2022-11-17T18:48:07.654Z,31.00
2022-11-17T18:50:57.930Z,36.70
2022-11-17T18:53:28.363Z,39.75
2022-11-17T18:56:03.261Z,36.13
2022-11-17T18:58:38.591Z,36.08
2022-11-17T19:01:15.193Z,32.50
2022-11-17T19:03:46.690Z,31.63
2022-11-17T19:06:17.361Z,38.60
2022-11-17T19:08:48.284Z,32.90
2022-11-17T19:11:22.838Z,33.63
2022-11-17T19:13:56.273Z,34.38
2022-11-17T19:16:27.033Z,32.53
2022-11-17T19:18:58.194Z,36.63
2022-11-17T19:21:27.706Z,39.05
2022-11-17T19:23:58.168Z,38.33
2022-11-17T19:26:31.308Z,37.88
2022-11-17T19:29:03.362Z,38.35
2022-11-17T19:31:33.898Z,39.28
2022-11-17T19:34:02.145Z,41.65
2022-11-17T19:36:32.019Z,42.22
2022-11-17T19:39:02.590Z,39.03
2022-11-17T19:41:32.365Z,41.33
2022-11-17T19:44:05.469Z,48.05
2022-11-17T19:46:36.686Z,42.65
2022-11-17T19:49:06.341Z,38.70
2022-11-17T19:51:38.424Z,43.00
2022-11-17T19:54:08.150Z,46.05
2022-11-17T19:56:39.689Z,40.95
2022-11-17T19:59:15.278Z,45.55
2022-11-17T20:01:46.509Z,44.53
2022-11-17T20:04:15.900Z,55.65
2022-11-17T20:06:45.536Z,46.83
2022-11-17T20:09:17.798Z,50.17
2022-11-17T20:11:49.445Z,48.42
2022-11-17T20:14:20.489Z,50.15
2022-11-17T20:16:50.508Z,51.80
2022-11-17T20:19:20.136Z,50.22
2022-11-17T20:21:57.701Z,52.40
2022-11-17T20:24:27.020Z,52.78
2022-11-17T20:26:56.523Z,51.88
2022-11-17T20:29:26.635Z,50.00
2022-11-17T20:32:02.572Z,53.45
2022-11-17T20:34:30.794Z,55.83
2022-11-17T20:36:59.097Z,51.58
2022-11-17T20:39:27.750Z,54.30
2022-11-17T20:41:56.670Z,54.35
2022-11-17T20:44:27.856Z,52.22
2022-11-17T20:46:56.797Z,53.58
2022-11-17T20:49:25.541Z,49.33
2022-11-17T20:51:56.654Z,53.00
2022-11-17T20:54:24.709Z,48.30
2022-11-17T20:56:53.544Z,48.85
2022-11-17T20:59:22.355Z,53.95
2022-11-17T21:01:54.736Z,56.00
2022-11-17T21:04:23.507Z,54.85
2022-11-17T21:06:54.087Z,53.72
2022-11-17T21:09:22.987Z,56.72
2022-11-17T21:12:00.112Z,54.60
2022-11-17T21:14:35.252Z,58.38
2022-11-17T21:17:24.628Z,53.58
2022-11-17T21:19:54.820Z,61.65
2022-11-17T21:22:23.074Z,60.50
2022-11-17T21:24:56.276Z,58.08
2022-11-17T21:27:26.726Z,58.28
2022-11-17T21:29:59.167Z,60.00
2022-11-17T21:32:29.089Z,56.40
2022-11-17T21:34:59.405Z,62.80
2022-11-17T21:37:28.467Z,49.73
2022-11-17T21:39:59.245Z,62.38
2022-11-17T21:42:27.851Z,61.75
2022-11-17T21:44:56.938Z,57.88
2022-11-17T21:47:30.985Z,65.00
2022-11-17T21:50:02.027Z,49.95
2022-11-17T21:52:30.462Z,57.92
2022-11-17T21:54:58.736Z,49.50
2022-11-17T21:57:27.261Z,57.28
2022-11-17T21:59:56.194Z,57.83
2022-11-17T22:02:25.063Z,60.88
2022-11-17T22:04:56.542Z,50.05
2022-11-17T22:07:31.208Z,65.43
2022-11-17T22:09:59.669Z,60.83
2022-11-17T22:12:30.073Z,58.90
2022-11-17T22:15:00.046Z,59.80
2022-11-17T22:17:28.253Z,58.40
2022-11-17T22:20:01.087Z,58.00
2022-11-17T22:22:29.627Z,52.90
2022-11-17T22:25:11.446Z,43.38
2022-11-17T22:27:46.300Z,56.05
2022-11-17T22:30:17.150Z,56.70
2022-11-17T22:32:46.620Z,55.97
2022-11-17T22:35:17.336Z,58.22
2022-11-17T22:37:46.509Z,56.53
2022-11-17T22:40:17.570Z,50.22
2022-11-17T22:42:46.224Z,54.10
2022-11-17T22:45:14.784Z,54.65
2022-11-17T22:47:46.248Z,54.38
2022-11-17T22:50:14.574Z,52.50
2022-11-17T22:52:44.087Z,55.97
2022-11-17T22:55:12.819Z,53.08
2022-11-17T22:57:41.158Z,50.90
2022-11-17T23:00:14.672Z,50.85
2022-11-17T23:02:42.829Z,59.42
2022-11-17T23:05:11.218Z,45.47
2022-11-17T23:07:44.876Z,51.83
2022-11-17T23:10:15.497Z,53.35
2022-11-17T23:12:43.600Z,51.33
2022-11-17T23:15:13.922Z,54.17
2022-11-17T23:17:46.161Z,51.63
2022-11-17T23:22:44.443Z,52.35
2022-11-17T23:25:15.120Z,50.33
2022-11-17T23:27:43.592Z,54.53
2022-11-17T23:30:13.883Z,44.60
2022-11-17T23:32:42.331Z,55.55
2022-11-17T23:35:11.513Z,56.40
2022-11-17T23:37:43.194Z,59.95
2022-11-17T23:40:16.453Z,58.28
2022-11-17T23:42:45.953Z,47.60
2022-11-17T23:45:14.310Z,53.70
2022-11-17T23:47:44.183Z,54.85
2022-11-17T23:50:12.314Z,52.30
2022-11-17T23:52:40.870Z,51.13
2022-11-17T23:55:09.411Z,54.30
2022-11-17T23:57:38.633Z,59.63
